createdAt,value
2018-07-28T00:03:25.150Z,5.05
2018-07-28T00:08:19.741Z,5.53
2018-07-28T00:13:14.197Z,4.95
2018-07-28T00:18:08.706Z,6.60
2018-07-28T00:23:03.204Z,5.72
2018-07-28T00:27:57.672Z,5.75
2018-07-28T00:32:52.152Z,5.80
2018-07-28T00:37:46.581Z,5.95
2018-07-28T00:42:41.066Z,6.08
2018-07-28T00:47:35.496Z,6.47
2018-07-28T00:52:30.029Z,5.78
2018-07-28T00:57:24.586Z,5.87
2018-07-28T01:02:19.065Z,5.85
2018-07-28T01:07:13.525Z,5.22
2018-07-28T01:12:08.089Z,5.47
2018-07-28T01:17:02.616Z,7.10
2018-07-28T01:21:57.132Z,6.17
2018-07-28T01:26:51.285Z,5.97
2018-07-28T01:31:46.876Z,6.47
2018-07-28T01:36:41.375Z,6.03
2018-07-28T01:41:35.841Z,5.83
2018-07-28T01:46:30.273Z,5.60
2018-07-28T01:51:24.535Z,5.67
2018-07-28T01:56:19.016Z,6.03
2018-07-28T02:01:13.477Z,5.90
2018-07-28T02:06:07.962Z,5.70
2018-07-28T02:11:02.602Z,5.90
2018-07-28T02:15:57.053Z,5.50
2018-07-28T02:20:51.515Z,5.83
2018-07-28T02:25:45.980Z,5.83
2018-07-28T02:30:40.525Z,6.43
2018-07-28T02:35:35.085Z,6.50
2018-07-28T02:40:29.612Z,6.23
2018-07-28T02:45:23.854Z,6.50
2018-07-28T02:50:18.405Z,6.53
2018-07-28T02:55:12.696Z,6.10
2018-07-28T03:00:08.505Z,6.93
2018-07-28T03:05:02.935Z,6.60
2018-07-28T03:09:57.360Z,7.07
2018-07-28T03:14:51.859Z,6.60
2018-07-28T03:19:46.334Z,7.47
2018-07-28T03:24:40.769Z,6.97
2018-07-28T03:29:35.388Z,7.27
2018-07-28T03:34:29.828Z,6.90
2018-07-28T03:39:24.260Z,8.10
2018-07-28T03:44:18.684Z,6.90
2018-07-28T03:49:13.211Z,8.00
2018-07-28T03:54:07.647Z,7.60
2018-07-28T03:59:02.166Z,7.63
2018-07-28T04:03:56.781Z,7.47
2018-07-28T04:08:51.237Z,6.70
2018-07-28T04:13:45.708Z,7.70
2018-07-28T04:18:40.186Z,8.27
2018-07-28T04:23:34.664Z,8.03
2018-07-28T04:28:29.212Z,7.87
2018-07-28T04:33:23.653Z,6.47
2018-07-28T04:38:18.084Z,7.30
2018-07-28T04:43:12.529Z,7.22
2018-07-28T04:48:07.111Z,6.25
2018-07-28T04:53:01.577Z,7.40
2018-07-28T04:57:56.112Z,7.33
2018-07-28T05:02:50.633Z,7.15
2018-07-28T05:07:45.159Z,7.28
2018-07-28T05:12:39.545Z,7.55
2018-07-28T05:17:33.985Z,7.50
2018-07-28T05:22:28.425Z,6.70
2018-07-28T05:27:22.948Z,6.92
2018-07-28T05:32:17.458Z,7.00
2018-07-28T05:37:11.744Z,5.62
2018-07-28T05:42:06.304Z,6.87
2018-07-28T05:47:00.890Z,6.35
2018-07-28T05:51:55.417Z,6.55
2018-07-28T05:56:49.889Z,6.90
2018-07-28T06:01:44.485Z,6.17
2018-07-28T06:06:38.642Z,6.33
2018-07-28T06:11:33.085Z,6.47
2018-07-28T06:16:27.609Z,6.12
2018-07-28T06:21:22.080Z,6.42
2018-07-28T06:26:16.609Z,6.90
2018-07-28T06:31:11.097Z,6.70
2018-07-28T06:36:05.261Z,7.00
2018-07-28T06:40:59.761Z,6.17
2018-07-28T06:45:54.309Z,6.83
2018-07-28T06:50:48.877Z,6.33
2018-07-28T06:55:43.363Z,7.17
2018-07-28T07:00:37.869Z,7.85
2018-07-28T07:05:32.412Z,7.08
2018-07-28T07:10:26.878Z,7.17
2018-07-28T07:15:21.390Z,6.05
2018-07-28T07:20:15.861Z,5.78
2018-07-28T07:25:10.317Z,6.35
2018-07-28T07:30:06.184Z,6.28
2018-07-28T07:35:00.676Z,6.90
2018-07-28T07:39:54.831Z,6.60
2018-07-28T07:44:49.343Z,6.70
2018-07-28T07:49:43.913Z,5.60
2018-07-28T07:54:38.788Z,6.78
2018-07-28T07:59:33.285Z,5.50
2018-07-28T08:04:27.739Z,4.90
2018-07-28T08:09:22.196Z,5.33
2018-07-28T08:14:16.656Z,5.62
2018-07-28T08:19:11.261Z,5.80
2018-07-28T08:24:05.794Z,5.33
2018-07-28T08:29:00.358Z,5.75
2018-07-28T08:33:54.868Z,5.45
2018-07-28T08:38:49.385Z,5.40
2018-07-28T08:43:44.350Z,5.90
2018-07-28T08:48:38.850Z,5.15
2018-07-28T08:53:33.330Z,5.45
2018-07-28T08:58:27.824Z,5.53
2018-07-28T09:03:22.361Z,5.55
2018-07-28T09:08:16.934Z,4.65
2018-07-28T09:13:11.421Z,4.78
2018-07-28T09:18:05.919Z,5.40
2018-07-28T09:23:00.374Z,5.03
2018-07-28T09:27:54.893Z,5.22
2018-07-28T09:32:49.076Z,5.03
2018-07-28T09:37:43.568Z,4.37
2018-07-28T09:42:38.054Z,4.42
2018-07-28T09:47:32.616Z,4.15
2018-07-28T09:52:27.968Z,4.15
2018-07-28T09:57:22.503Z,3.83
2018-07-28T10:02:17.028Z,4.17
2018-07-28T10:07:11.235Z,4.05
2018-07-28T10:12:05.773Z,4.25
2018-07-28T10:17:00.288Z,4.25
2018-07-28T10:21:54.858Z,3.52
2018-07-28T10:26:49.079Z,3.85
2018-07-28T10:31:43.942Z,3.70
2018-07-28T10:36:38.440Z,3.60
2018-07-28T10:41:32.937Z,3.58
2018-07-28T10:46:27.450Z,3.65
2018-07-28T10:51:21.949Z,3.60
2018-07-28T10:56:16.803Z,3.80
2018-07-28T11:01:11.305Z,3.80
2018-07-28T11:06:06.497Z,3.80
2018-07-28T11:11:01.050Z,3.62
2018-07-28T11:15:55.604Z,3.72
2018-07-28T11:20:50.104Z,3.87
2018-07-28T11:25:44.721Z,4.15
2018-07-28T11:30:39.294Z,4.03
2018-07-28T11:35:50.713Z,4.28
2018-07-28T11:41:01.970Z,4.00
2018-07-28T11:45:56.483Z,4.25
2018-07-28T11:50:50.628Z,4.20
2018-07-28T11:55:45.133Z,4.22
2018-07-28T12:00:39.668Z,4.83
2018-07-28T12:05:34.251Z,4.55
2018-07-28T12:10:28.769Z,4.95
2018-07-28T12:15:23.309Z,4.53
2018-07-28T12:20:17.853Z,5.12
2018-07-28T12:25:12.337Z,4.97
2018-07-28T12:30:09.375Z,5.00
2018-07-28T12:35:04.030Z,5.00
2018-07-28T12:39:58.142Z,4.72
2018-07-28T12:44:52.645Z,4.95
2018-07-28T12:49:47.167Z,4.87
2018-07-28T12:54:41.656Z,4.90
2018-07-28T12:59:36.093Z,5.15
2018-07-28T13:04:30.568Z,5.00
2018-07-28T13:09:25.055Z,5.10
2018-07-28T13:14:19.342Z,4.83
2018-07-28T13:19:23.817Z,4.78
2018-07-28T13:24:18.334Z,5.12
2018-07-28T13:29:12.825Z,5.10
2018-07-28T13:34:07.288Z,5.45
2018-07-28T13:39:01.789Z,5.22
2018-07-28T13:43:56.249Z,4.85
2018-07-28T13:48:50.801Z,4.90
2018-07-28T13:53:45.414Z,4.92
2018-07-28T13:58:39.961Z,5.08
2018-07-28T14:03:34.497Z,4.65
2018-07-28T14:08:29.019Z,4.60
2018-07-28T14:13:23.503Z,4.30
2018-07-28T14:18:18.079Z,4.70
2018-07-28T14:23:12.534Z,4.50
2018-07-28T14:28:07.299Z,4.47
2018-07-28T14:33:01.798Z,5.08
2018-07-28T14:37:56.316Z,5.35
2018-07-28T14:42:50.844Z,5.15
2018-07-28T14:47:45.419Z,5.70
2018-07-28T14:52:39.937Z,5.42
2018-07-28T14:57:34.452Z,5.10
2018-07-28T15:02:28.949Z,5.70
2018-07-28T15:07:23.516Z,5.47
2018-07-28T15:12:18.008Z,6.05
2018-07-28T15:17:12.503Z,5.78
2018-07-28T15:22:07.054Z,5.40
2018-07-28T15:27:01.569Z,5.87
2018-07-28T15:31:56.087Z,5.55
2018-07-28T15:36:50.618Z,5.58
2018-07-28T15:41:45.117Z,5.62
2018-07-28T15:46:39.621Z,5.70
2018-07-28T15:51:34.199Z,5.60
2018-07-28T15:56:28.737Z,5.85
2018-07-28T16:01:23.200Z,5.40
2018-07-28T16:06:17.748Z,5.30
2018-07-28T16:11:12.221Z,5.60
2018-07-28T16:16:07.418Z,5.70
2018-07-28T16:21:01.906Z,5.87
2018-07-28T16:25:56.426Z,5.60
2018-07-28T16:30:50.890Z,5.33
2018-07-28T16:35:45.388Z,5.37
2018-07-28T16:40:39.861Z,5.85
2018-07-28T16:45:34.376Z,5.70
2018-07-28T16:50:28.913Z,5.28
2018-07-28T16:55:23.553Z,5.12
2018-07-28T17:00:18.082Z,5.80
2018-07-28T17:05:12.573Z,4.87
2018-07-28T17:10:06.924Z,5.33
2018-07-28T17:15:01.406Z,4.92
2018-07-28T17:19:55.922Z,5.17
2018-07-28T17:24:50.743Z,5.15
2018-07-28T17:29:45.318Z,5.60
2018-07-28T17:34:39.800Z,5.15
2018-07-28T17:39:34.337Z,5.00
2018-07-28T17:44:28.796Z,4.92
2018-07-28T17:49:23.345Z,5.25
2018-07-28T17:54:17.821Z,5.22
2018-07-28T17:59:12.327Z,4.92
2018-07-28T18:04:06.962Z,5.47
2018-07-28T18:09:01.470Z,5.95
2018-07-28T18:13:55.969Z,5.40
2018-07-28T18:18:50.491Z,5.75
2018-07-28T18:23:44.712Z,6.10
2018-07-28T18:28:39.200Z,5.58
2018-07-28T18:33:33.715Z,5.58
2018-07-28T18:38:28.235Z,5.33
2018-07-28T18:43:22.730Z,5.60
2018-07-28T18:48:17.202Z,5.05
2018-07-28T18:53:11.693Z,5.80
2018-07-28T18:58:06.644Z,6.15
2018-07-28T19:03:01.176Z,5.72
2018-07-28T19:07:55.684Z,5.75
2018-07-28T19:12:55.260Z,6.15
2018-07-28T19:17:54.923Z,5.47
2018-07-28T19:22:54.709Z,5.30
2018-07-28T19:30:01.593Z,4.67
2018-07-28T19:34:56.073Z,5.28
2018-07-28T19:39:50.584Z,5.37
2018-07-28T19:44:45.037Z,5.33
2018-07-28T19:49:39.564Z,5.47
2018-07-28T19:54:34.057Z,5.45
2018-07-28T19:59:28.537Z,5.75
2018-07-28T20:04:23.076Z,5.47
2018-07-28T20:09:17.577Z,5.62
2018-07-28T20:14:12.125Z,5.70
2018-07-28T20:19:07.052Z,5.47
2018-07-28T20:24:01.505Z,5.20
2018-07-28T20:28:56.048Z,6.00
2018-07-28T20:33:50.528Z,4.87
2018-07-28T20:38:45.002Z,5.15
2018-07-28T20:43:39.544Z,5.05
2018-07-28T20:48:33.997Z,5.75
2018-07-28T20:53:28.500Z,5.17
2018-07-28T20:58:22.993Z,4.80
2018-07-28T21:03:17.504Z,5.35
2018-07-28T21:08:11.974Z,4.80
2018-07-28T21:13:06.713Z,4.80
2018-07-28T21:18:01.212Z,4.83
2018-07-28T21:22:55.778Z,4.97
2018-07-28T21:27:50.269Z,5.43
2018-07-28T21:32:44.796Z,5.70
2018-07-28T21:37:39.248Z,5.30
2018-07-28T21:42:33.745Z,5.60
2018-07-28T21:47:28.319Z,6.10
2018-07-28T21:52:22.837Z,6.07
2018-07-28T21:57:17.324Z,6.80
2018-07-28T22:02:11.881Z,6.70
2018-07-28T22:07:06.091Z,6.10
2018-07-28T22:12:00.636Z,5.93
2018-07-28T22:16:55.226Z,6.23
2018-07-28T22:21:49.709Z,5.60
2018-07-28T22:26:44.385Z,6.40
2018-07-28T22:31:38.936Z,6.27
2018-07-28T22:36:33.429Z,6.60
2018-07-28T22:41:27.886Z,6.97
2018-07-28T22:46:22.414Z,7.10
2018-07-28T22:51:16.628Z,7.80
2018-07-28T22:56:11.173Z,6.87
2018-07-28T23:01:05.763Z,6.80
2018-07-28T23:06:00.173Z,7.47
2018-07-28T23:10:54.749Z,7.00
2018-07-28T23:15:49.221Z,6.60
2018-07-28T23:20:43.703Z,6.27
2018-07-28T23:25:38.174Z,6.30
2018-07-28T23:30:32.672Z,6.47
2018-07-28T23:35:27.165Z,6.50
2018-07-28T23:40:21.718Z,6.27
2018-07-28T23:45:16.217Z,6.60
2018-07-28T23:50:10.680Z,6.43
2018-07-28T23:55:05.333Z,7.77
2018-07-28T23:59:59.905Z,7.70
